This is the latest recevied weather packets stored in our database for station/object S50APT-10. If no packets are shown the sender has not sent any weather packets the latest 1 day(s).
| Time | Temp. | Humidity | Pressure | Rain* | Wind** | Luminosity | Snow |
|---|---|---|---|---|---|---|---|
| 1777884336 | 26.67° C | 27% | 1019.7 hPa | - | - | - | - |
| 1777883436 | 27.78° C | 26% | 1019.7 hPa | - | - | - | - |
| 1777882534 | 26.11° C | 28% | 1019.8 hPa | - | - | - | - |
| 1777881633 | 23.33° C | 32% | 1019.6 hPa | - | - | - | - |
| 1777880731 | 24.44° C | 32% | 1019.7 hPa | - | - | - | - |
| 1777879831 | 23.33° C | 35% | 1019.6 hPa | - | - | - | - |
| 1777878931 | 21.11° C | 39% | 1019.7 hPa | - | - | - | - |
| 1777878030 | 20° C | 41% | 1019.6 hPa | - | - | - | - |
| 1777877130 | 19.44° C | 42% | 1019.5 hPa | - | - | - | - |
| 1777876229 | 17.22° C | 46% | 1019.3 hPa | - | - | - | - |
| 1777875329 | 16.67° C | 48% | 1019.4 hPa | - | - | - | - |
| 1777874428 | 17.22° C | 45% | 1019.5 hPa | - | - | - | - |
| 1777873526 | 16.11° C | 46% | 1019.3 hPa | - | - | - | - |
| 1777872625 | 15° C | 50% | 1019.3 hPa | - | - | - | - |
| 1777871723 | 15° C | 48% | 1019.3 hPa | - | - | - | - |
| 1777870821 | 14.44° C | 50% | 1019.2 hPa | - | - | - | - |
| 1777869920 | 13.89° C | 51% | 1019.3 hPa | - | - | - | - |
| 1777869053 | 13.33° C | 51% | 1019.2 hPa | - | - | - | - |
| 1777869019 | 13.33° C | 51% | 1019.2 hPa | - | - | - | - |
| 1777868118 | 12.78° C | 53% | 1019.1 hPa | - | - | - | - |
| 1777867214 | 12.78° C | 53% | 1019.1 hPa | - | - | - | - |
| 1777866314 | 12.78° C | 54% | 1019.2 hPa | - | - | - | - |
| 1777865444 | 12.78° C | 54% | 1019.1 hPa | - | - | - | - |
| 1777865413 | 12.78° C | 54% | 1019.1 hPa | - | - | - | - |
| 1777864512 | 12.78° C | 53% | 1019.1 hPa | - | - | - | - |
* Rain since midnight (hover to see other rain measurements)
** Current wind speed in m/s (hover to see current wind gust speed)